San Leandro — WCW8516 — position and weather

sailwx.info

Track history (hours):
 
Tides and Currents Weather Stations Pressure Air Temp Water Temp Dewpoint Dewpoint Depression Visibility Wind Speed Wind Dir Waves Ship Positions

San Leandro

Owner: BUFALO MARINE SERVICE INC, HOUSTON, TX. More information available from US FCC via Universal Licensing System and Coast Guard Vessel Documentation Center.

Last reported at 2017-Nov-23 23:56 UTC. Time now 2017-Nov-24 00:22 UTC.
Position N 29°44' W 095°02'.

Length 22 m; draft 3.4 m.

Type: Tug. MMSI: 366941850.

Date/timePositionNaut miles runAvg speedWind from/ knotsBaromVisibWave heightAir tempDewpointWater temp
2017-Nov-23 23:56N 29°44' W 095°02'3 7.6
2017-Nov-23 23:30N 29°41' W 094°59'5 9.1
2017-Nov-23 23:00N 29°37' W 094°57'5 9.3
2017-Nov-23 22:30N 29°33' W 094°55'4 0.3
2017-Nov-23 06:40N 29°30' W 094°52'2 8.8
2017-Nov-23 06:30N 29°31' W 094°53'5 8.5
2017-Nov-23 05:55N 29°35' W 094°56'2 6.1
2017-Nov-23 05:30N 29°37' W 094°58'2 4.4
2017-Nov-23 05:00N 29°37' W 095°01'0 0.0
2017-Nov-23 04:30N 29°37' W 095°01'0 0.0
2017-Nov-23 04:00N 29°37' W 095°01'0 0.0
2017-Nov-23 03:30N 29°37' W 095°01'0 0.0
2017-Nov-23 03:00N 29°37' W 095°01'0 0.0
2017-Nov-23 02:30N 29°37' W 095°01'0 0.0
2017-Nov-23 02:00N 29°37' W 095°01'0 0.0
2017-Nov-23 01:30N 29°37' W 095°01'0 0.0
2017-Nov-23 00:59N 29°37' W 095°01'0 0.0
2017-Nov-23 00:30N 29°37' W 095°01'0 0.0
2017-Nov-23 00:00N 29°37' W 095°01'0 0.0
2017-Nov-22 23:30N 29°37' W 095°01'0 0.0
2017-Nov-22 23:00N 29°37' W 095°01'0 0.0
2017-Nov-22 21:56N 29°37' W 095°01'1 1.6
2017-Nov-22 21:30N 29°37' W 095°01'0 0.0
2017-Nov-22 21:00N 29°37' W 095°01'1 1.4
2017-Nov-22 20:30N 29°37' W 095°01'0 0.1
2017-Nov-22 20:00N 29°37' W 095°01'0 0.0
2017-Nov-22 19:30N 29°37' W 095°01'  
2017-Nov-20 00:29N 29°45' W 095°06'0 0.0
2017-Nov-19 23:56N 29°45' W 095°06'0 0.0
2017-Nov-19 23:26N 29°45' W 095°06'0 0.2
2017-Nov-19 22:58N 29°45' W 095°06'5 0.5
2017-Nov-19 11:33N 29°44' W 095°12'0 1.3
2017-Nov-19 11:30N 29°44' W 095°12'0 0.0
2017-Nov-19 10:34N 29°44' W 095°12'0 0.0
2017-Nov-19 10:29N 29°44' W 095°12'0 0.0
2017-Nov-19 09:56N 29°44' W 095°12'0 0.0
2017-Nov-19 09:30N 29°44' W 095°12'0 0.0
2017-Nov-19 08:57N 29°44' W 095°12'0 0.0
2017-Nov-19 08:30N 29°44' W 095°12'0 0.0
2017-Nov-18 22:06N 29°44' W 095°12'0 0.1
2017-Nov-18 22:00N 29°44' W 095°12'2 2.9
2017-Nov-18 21:18N 29°45' W 095°10'5 0.3
2017-Nov-18 05:19N 29°46' W 095°04'3 7.0
2017-Nov-18 04:53N 29°44' W 095°01'2 6.6
2017-Nov-18 04:30N 29°42' W 094°60'4 7.8
2017-Nov-18 04:01N 29°38' W 094°58'4 8.1
2017-Nov-18 03:30N 29°35' W 094°56'6 0.2
2017-Nov-16 22:34N 29°29' W 094°52'1 7.2
2017-Nov-16 22:29N 29°30' W 094°52'3 7.2
2017-Nov-16 22:01N 29°32' W 094°54'4 7.6
2017-Nov-16 21:31N 29°36' W 094°57'4 7.7
2017-Nov-16 21:01N 29°39' W 094°58'4 7.4
2017-Nov-16 20:30N 29°42' W 095°01'4 7.1
2017-Nov-16 20:00N 29°45' W 095°04'4 6.1
2017-Nov-16 19:24N 29°44' W 095°08'3 7.7
2017-Nov-16 19:01N 29°45' W 095°11'3 6.7
2017-Nov-16 18:30N 29°43' W 095°15'2 4.9
2017-Nov-16 18:00N 29°45' W 095°17'1 3.0
2017-Nov-16 17:30N 29°44' W 095°16'0 0.1
2017-Nov-16 12:41N 29°43' W 095°17'0 1.7
2017-Nov-16 12:29N 29°44' W 095°16'1 3.1
2017-Nov-16 12:00N 29°45' W 095°17'0 0.0
2017-Nov-16 11:30N 29°45' W 095°17'0 0.0
2017-Nov-16 11:00N 29°45' W 095°17'0 0.0
2017-Nov-16 10:30N 29°45' W 095°17'0 0.0
2017-Nov-16 10:00N 29°45' W 095°17'0 0.0
2017-Nov-16 09:31N 29°45' W 095°17'0 0.0
2017-Nov-16 09:01N 29°45' W 095°17'0 0.0
2017-Nov-16 08:28N 29°45' W 095°17'0 0.0
2017-Nov-16 08:00N 29°45' W 095°17'0 0.0
2017-Nov-16 07:30N 29°45' W 095°17'0 0.0
2017-Nov-16 07:00N 29°45' W 095°17'0 0.0
2017-Nov-16 06:30N 29°45' W 095°17'0 0.0
2017-Nov-16 06:00N 29°45' W 095°17'0 0.0
2017-Nov-16 05:30N 29°45' W 095°17'0 0.0
2017-Nov-16 05:00N 29°45' W 095°17'0 0.0
2017-Nov-16 04:30N 29°45' W 095°17'0 0.0
2017-Nov-16 04:00N 29°45' W 095°17'0 0.0
2017-Nov-16 03:30N 29°45' W 095°17'0 0.0
2017-Nov-16 03:00N 29°45' W 095°17'0 0.0
2017-Nov-16 02:30N 29°45' W 095°17'0 0.0
2017-Nov-16 02:00N 29°45' W 095°17'0 0.0
2017-Nov-16 01:30N 29°45' W 095°17'0 0.0
2017-Nov-16 01:00N 29°45' W 095°17'0 0.0
2017-Nov-16 00:30N 29°45' W 095°17'0 0.0
2017-Nov-16 00:00N 29°45' W 095°17'0 0.0
2017-Nov-15 23:30N 29°45' W 095°17'0 0.0
2017-Nov-15 23:00N 29°45' W 095°17'0 0.0
2017-Nov-15 22:28N 29°45' W 095°17'0 0.0
2017-Nov-15 21:56N 29°45' W 095°17'0 0.0
2017-Nov-15 21:30N 29°45' W 095°17'0 0.0
2017-Nov-15 20:54N 29°45' W 095°17'0 0.0
2017-Nov-15 20:29N 29°45' W 095°17'0 0.0
2017-Nov-15 19:58N 29°45' W 095°17'0 0.0
2017-Nov-15 19:24N 29°45' W 095°17'0 0.0
2017-Nov-15 19:00N 29°45' W 095°17'0 0.0
2017-Nov-15 18:17N 29°45' W 095°17'0 0.0
2017-Nov-15 17:56N 29°45' W 095°17'0 0.0
2017-Nov-15 17:24N 29°45' W 095°17'0 0.0
2017-Nov-15 17:00N 29°45' W 095°17'0 0.0
2017-Nov-15 16:30N 29°45' W 095°17'0 0.0
2017-Nov-15 15:57N 29°45' W 095°17'0 0.0
2017-Nov-15 15:29N 29°45' W 095°17'0 0.0
2017-Nov-15 15:00N 29°45' W 095°17'0 0.0
2017-Nov-15 14:27N 29°45' W 095°17'0 0.0
2017-Nov-15 14:00N 29°45' W 095°17'0 0.0
2017-Nov-15 13:30N 29°45' W 095°17'0 0.0
2017-Nov-15 13:00N 29°45' W 095°17'0 0.0
2017-Nov-15 12:30N 29°45' W 095°17'0 0.0
2017-Nov-15 11:59N 29°45' W 095°17'0 0.0
2017-Nov-15 11:30N 29°45' W 095°17'0 0.0
2017-Nov-15 11:00N 29°45' W 095°17'0 0.0
2017-Nov-15 10:29N 29°45' W 095°17'0 0.0
2017-Nov-15 10:00N 29°45' W 095°17'0 0.0
2017-Nov-15 09:30N 29°45' W 095°17'0 0.0
2017-Nov-15 09:00N 29°45' W 095°17'0 0.0
2017-Nov-15 08:30N 29°45' W 095°17'0 0.0
2017-Nov-15 08:00N 29°45' W 095°17'0 0.0
2017-Nov-15 07:30N 29°45' W 095°17'0 0.0
2017-Nov-15 07:00N 29°45' W 095°17'0 0.0
2017-Nov-15 06:29N 29°45' W 095°17'0 0.0
2017-Nov-15 06:00N 29°45' W 095°17'0 0.0
2017-Nov-15 05:27N 29°45' W 095°17'0 0.0
2017-Nov-15 04:59N 29°45' W 095°17'0 0.0
2017-Nov-15 04:30N 29°45' W 095°17'0 0.0
2017-Nov-15 04:00N 29°45' W 095°17'0 0.0
2017-Nov-15 03:30N 29°45' W 095°17'0 0.0
2017-Nov-15 03:00N 29°45' W 095°17'0 0.0
2017-Nov-15 02:30N 29°45' W 095°17'0 0.0
2017-Nov-15 02:00N 29°45' W 095°17'0 0.0
2017-Nov-15 01:30N 29°45' W 095°17'0 0.0
2017-Nov-15 01:00N 29°45' W 095°17'0 0.0
2017-Nov-15 00:30N 29°45' W 095°17'0 0.0
2017-Nov-15 00:00N 29°45' W 095°17'0 0.0
2017-Nov-14 23:30N 29°45' W 095°17'0 0.0
2017-Nov-14 22:59N 29°45' W 095°17'0 0.0
2017-Nov-14 22:30N 29°45' W 095°17'0 0.0
2017-Nov-14 22:00N 29°45' W 095°17'0 0.0
2017-Nov-14 21:30N 29°45' W 095°17'0 0.0
2017-Nov-14 20:59N 29°45' W 095°17'0 0.0
2017-Nov-14 20:30N 29°45' W 095°17'0 0.0
2017-Nov-14 19:59N 29°45' W 095°17'0 0.0
2017-Nov-14 19:30N 29°45' W 095°17'0 0.0
2017-Nov-14 19:00N 29°45' W 095°17'0 0.0
2017-Nov-14 18:29N 29°45' W 095°17'0 0.0
2017-Nov-14 18:00N 29°45' W 095°17'0 0.0
2017-Nov-14 17:29N 29°45' W 095°17'0 0.0
2017-Nov-14 16:58N 29°45' W 095°17'2 3.7
2017-Nov-14 16:30N 29°43' W 095°16'0 0.1
2017-Nov-14 13:41N 29°43' W 095°16'1 4.1
2017-Nov-14 13:29N 29°44' W 095°17'1 2.1
2017-Nov-14 13:00N 29°45' W 095°17'0 0.0
2017-Nov-14 12:30N 29°45' W 095°17'0 0.0
2017-Nov-14 12:00N 29°45' W 095°17'0 0.0
2017-Nov-14 11:30N 29°45' W 095°17'0 0.0
2017-Nov-14 11:00N 29°45' W 095°17'0 0.0
2017-Nov-14 10:30N 29°45' W 095°17'0 0.0
2017-Nov-14 10:00N 29°45' W 095°17'0 0.0
2017-Nov-14 09:30N 29°45' W 095°17'0 0.0
2017-Nov-14 09:00N 29°45' W 095°17'0 0.0
2017-Nov-14 08:30N 29°45' W 095°17'0 0.0
2017-Nov-14 08:00N 29°45' W 095°17'0 0.0
2017-Nov-14 07:30N 29°45' W 095°17'0 0.0
2017-Nov-14 07:00N 29°45' W 095°17'0 0.0
2017-Nov-14 06:30N 29°45' W 095°17'0 0.0
2017-Nov-14 06:00N 29°45' W 095°17'0 0.0
2017-Nov-14 05:24N 29°45' W 095°17'0 0.0
2017-Nov-14 05:00N 29°45' W 095°17'0 0.0
2017-Nov-14 04:30N 29°45' W 095°17'0 0.0
2017-Nov-14 04:00N 29°45' W 095°17'0 0.0
2017-Nov-14 03:30N 29°45' W 095°17'0 0.0
2017-Nov-14 03:00N 29°45' W 095°17'0 0.0
2017-Nov-14 02:30N 29°45' W 095°17'0 0.0
2017-Nov-14 02:00N 29°45' W 095°17'0 0.0
2017-Nov-14 01:30N 29°45' W 095°17'0 0.0
2017-Nov-14 01:00N 29°45' W 095°17'0 0.0
2017-Nov-14 00:30N 29°45' W 095°17'0 0.0
2017-Nov-14 00:00N 29°45' W 095°17'  
Track history (hours):
 
Tides and Currents Weather Stations Pressure Air Temp Water Temp Dewpoint Dewpoint Depression Visibility Wind Speed Wind Dir Waves Ship Positions

San Leandro

Owner: BUFALO MARINE SERVICE INC, HOUSTON, TX. More information available from US FCC via Universal Licensing System and Coast Guard Vessel Documentation Center.

Last reported at 2017-Nov-23 23:56 UTC. Time now 2017-Nov-24 00:22 UTC.
Position N 29°44' W 095°02'.

Length 22 m; draft 3.4 m.

Type: Tug. MMSI: 366941850.

Date/timePositionNaut miles runAvg speedWind from/ knotsBaromVisibWave heightAir tempDewpointWater temp
2017-Nov-23 23:56N 29°44' W 095°02'3 7.6
2017-Nov-23 23:30N 29°41' W 094°59'5 9.1
2017-Nov-23 23:00N 29°37' W 094°57'5 9.3
2017-Nov-23 22:30N 29°33' W 094°55'4 0.3
2017-Nov-23 06:40N 29°30' W 094°52'2 8.8
2017-Nov-23 06:30N 29°31' W 094°53'5 8.5
2017-Nov-23 05:55N 29°35' W 094°56'2 6.1
2017-Nov-23 05:30N 29°37' W 094°58'2 4.4
2017-Nov-23 05:00N 29°37' W 095°01'0 0.0
2017-Nov-23 04:30N 29°37' W 095°01'0 0.0
2017-Nov-23 04:00N 29°37' W 095°01'0 0.0
2017-Nov-23 03:30N 29°37' W 095°01'0 0.0
2017-Nov-23 03:00N 29°37' W 095°01'0 0.0
2017-Nov-23 02:30N 29°37' W 095°01'0 0.0
2017-Nov-23 02:00N 29°37' W 095°01'0 0.0
2017-Nov-23 01:30N 29°37' W 095°01'0 0.0
2017-Nov-23 00:59N 29°37' W 095°01'0 0.0
2017-Nov-23 00:30N 29°37' W 095°01'0 0.0
2017-Nov-23 00:00N 29°37' W 095°01'0 0.0
2017-Nov-22 23:30N 29°37' W 095°01'0 0.0
2017-Nov-22 23:00N 29°37' W 095°01'0 0.0
2017-Nov-22 21:56N 29°37' W 095°01'1 1.6
2017-Nov-22 21:30N 29°37' W 095°01'0 0.0
2017-Nov-22 21:00N 29°37' W 095°01'1 1.4
2017-Nov-22 20:30N 29°37' W 095°01'0 0.1
2017-Nov-22 20:00N 29°37' W 095°01'0 0.0
2017-Nov-22 19:30N 29°37' W 095°01'  
2017-Nov-20 00:29N 29°45' W 095°06'0 0.0
2017-Nov-19 23:56N 29°45' W 095°06'0 0.0
2017-Nov-19 23:26N 29°45' W 095°06'0 0.2
2017-Nov-19 22:58N 29°45' W 095°06'5 0.5
2017-Nov-19 11:33N 29°44' W 095°12'0 1.3
2017-Nov-19 11:30N 29°44' W 095°12'0 0.0
2017-Nov-19 10:34N 29°44' W 095°12'0 0.0
2017-Nov-19 10:29N 29°44' W 095°12'0 0.0
2017-Nov-19 09:56N 29°44' W 095°12'0 0.0
2017-Nov-19 09:30N 29°44' W 095°12'0 0.0
2017-Nov-19 08:57N 29°44' W 095°12'0 0.0
2017-Nov-19 08:30N 29°44' W 095°12'0 0.0
2017-Nov-18 22:06N 29°44' W 095°12'0 0.1
2017-Nov-18 22:00N 29°44' W 095°12'2 2.9
2017-Nov-18 21:18N 29°45' W 095°10'5 0.3
2017-Nov-18 05:19N 29°46' W 095°04'3 7.0
2017-Nov-18 04:53N 29°44' W 095°01'2 6.6
2017-Nov-18 04:30N 29°42' W 094°60'4 7.8
2017-Nov-18 04:01N 29°38' W 094°58'4 8.1
2017-Nov-18 03:30N 29°35' W 094°56'6 0.2
2017-Nov-16 22:34N 29°29' W 094°52'1 7.2
2017-Nov-16 22:29N 29°30' W 094°52'3 7.2
2017-Nov-16 22:01N 29°32' W 094°54'4 7.6
2017-Nov-16 21:31N 29°36' W 094°57'4 7.7
2017-Nov-16 21:01N 29°39' W 094°58'4 7.4
2017-Nov-16 20:30N 29°42' W 095°01'4 7.1
2017-Nov-16 20:00N 29°45' W 095°04'4 6.1
2017-Nov-16 19:24N 29°44' W 095°08'3 7.7
2017-Nov-16 19:01N 29°45' W 095°11'3 6.7
2017-Nov-16 18:30N 29°43' W 095°15'2 4.9
2017-Nov-16 18:00N 29°45' W 095°17'1 3.0
2017-Nov-16 17:30N 29°44' W 095°16'0 0.1
2017-Nov-16 12:41N 29°43' W 095°17'0 1.7
2017-Nov-16 12:29N 29°44' W 095°16'1 3.1
2017-Nov-16 12:00N 29°45' W 095°17'0 0.0
2017-Nov-16 11:30N 29°45' W 095°17'0 0.0
2017-Nov-16 11:00N 29°45' W 095°17'0 0.0
2017-Nov-16 10:30N 29°45' W 095°17'0 0.0
2017-Nov-16 10:00N 29°45' W 095°17'0 0.0
2017-Nov-16 09:31N 29°45' W 095°17'0 0.0
2017-Nov-16 09:01N 29°45' W 095°17'0 0.0
2017-Nov-16 08:28N 29°45' W 095°17'0 0.0
2017-Nov-16 08:00N 29°45' W 095°17'0 0.0
2017-Nov-16 07:30N 29°45' W 095°17'0 0.0
2017-Nov-16 07:00N 29°45' W 095°17'0 0.0
2017-Nov-16 06:30N 29°45' W 095°17'0 0.0
2017-Nov-16 06:00N 29°45' W 095°17'0 0.0
2017-Nov-16 05:30N 29°45' W 095°17'0 0.0
2017-Nov-16 05:00N 29°45' W 095°17'0 0.0
2017-Nov-16 04:30N 29°45' W 095°17'0 0.0
2017-Nov-16 04:00N 29°45' W 095°17'0 0.0
2017-Nov-16 03:30N 29°45' W 095°17'0 0.0
2017-Nov-16 03:00N 29°45' W 095°17'0 0.0
2017-Nov-16 02:30N 29°45' W 095°17'0 0.0
2017-Nov-16 02:00N 29°45' W 095°17'0 0.0
2017-Nov-16 01:30N 29°45' W 095°17'0 0.0
2017-Nov-16 01:00N 29°45' W 095°17'0 0.0
2017-Nov-16 00:30N 29°45' W 095°17'0 0.0
2017-Nov-16 00:00N 29°45' W 095°17'0 0.0
2017-Nov-15 23:30N 29°45' W 095°17'0 0.0
2017-Nov-15 23:00N 29°45' W 095°17'0 0.0
2017-Nov-15 22:28N 29°45' W 095°17'0 0.0
2017-Nov-15 21:56N 29°45' W 095°17'0 0.0
2017-Nov-15 21:30N 29°45' W 095°17'0 0.0
2017-Nov-15 20:54N 29°45' W 095°17'0 0.0
2017-Nov-15 20:29N 29°45' W 095°17'0 0.0
2017-Nov-15 19:58N 29°45' W 095°17'0 0.0
2017-Nov-15 19:24N 29°45' W 095°17'0 0.0
2017-Nov-15 19:00N 29°45' W 095°17'0 0.0
2017-Nov-15 18:17N 29°45' W 095°17'0 0.0
2017-Nov-15 17:56N 29°45' W 095°17'0 0.0
2017-Nov-15 17:24N 29°45' W 095°17'0 0.0
2017-Nov-15 17:00N 29°45' W 095°17'0 0.0
2017-Nov-15 16:30N 29°45' W 095°17'0 0.0
2017-Nov-15 15:57N 29°45' W 095°17'0 0.0
2017-Nov-15 15:29N 29°45' W 095°17'0 0.0
2017-Nov-15 15:00N 29°45' W 095°17'0 0.0
2017-Nov-15 14:27N 29°45' W 095°17'0 0.0
2017-Nov-15 14:00N 29°45' W 095°17'0 0.0
2017-Nov-15 13:30N 29°45' W 095°17'0 0.0
2017-Nov-15 13:00N 29°45' W 095°17'0 0.0
2017-Nov-15 12:30N 29°45' W 095°17'0 0.0
2017-Nov-15 11:59N 29°45' W 095°17'0 0.0
2017-Nov-15 11:30N 29°45' W 095°17'0 0.0
2017-Nov-15 11:00N 29°45' W 095°17'0 0.0
2017-Nov-15 10:29N 29°45' W 095°17'0 0.0
2017-Nov-15 10:00N 29°45' W 095°17'0 0.0
2017-Nov-15 09:30N 29°45' W 095°17'0 0.0
2017-Nov-15 09:00N 29°45' W 095°17'0 0.0
2017-Nov-15 08:30N 29°45' W 095°17'0 0.0
2017-Nov-15 08:00N 29°45' W 095°17'0 0.0
2017-Nov-15 07:30N 29°45' W 095°17'0 0.0
2017-Nov-15 07:00N 29°45' W 095°17'0 0.0
2017-Nov-15 06:29N 29°45' W 095°17'0 0.0
2017-Nov-15 06:00N 29°45' W 095°17'0 0.0
2017-Nov-15 05:27N 29°45' W 095°17'0 0.0
2017-Nov-15 04:59N 29°45' W 095°17'0 0.0
2017-Nov-15 04:30N 29°45' W 095°17'0 0.0
2017-Nov-15 04:00N 29°45' W 095°17'0 0.0
2017-Nov-15 03:30N 29°45' W 095°17'0 0.0
2017-Nov-15 03:00N 29°45' W 095°17'0 0.0
2017-Nov-15 02:30N 29°45' W 095°17'0 0.0
2017-Nov-15 02:00N 29°45' W 095°17'0 0.0
2017-Nov-15 01:30N 29°45' W 095°17'0 0.0
2017-Nov-15 01:00N 29°45' W 095°17'0 0.0
2017-Nov-15 00:30N 29°45' W 095°17'0 0.0
2017-Nov-15 00:00N 29°45' W 095°17'0 0.0
2017-Nov-14 23:30N 29°45' W 095°17'0 0.0
2017-Nov-14 22:59N 29°45' W 095°17'0 0.0
2017-Nov-14 22:30N 29°45' W 095°17'0 0.0
2017-Nov-14 22:00N 29°45' W 095°17'0 0.0
2017-Nov-14 21:30N 29°45' W 095°17'0 0.0
2017-Nov-14 20:59N 29°45' W 095°17'0 0.0
2017-Nov-14 20:30N 29°45' W 095°17'0 0.0
2017-Nov-14 19:59N 29°45' W 095°17'0 0.0
2017-Nov-14 19:30N 29°45' W 095°17'0 0.0
2017-Nov-14 19:00N 29°45' W 095°17'0 0.0
2017-Nov-14 18:29N 29°45' W 095°17'0 0.0
2017-Nov-14 18:00N 29°45' W 095°17'0 0.0
2017-Nov-14 17:29N 29°45' W 095°17'0 0.0
2017-Nov-14 16:58N 29°45' W 095°17'2 3.7
2017-Nov-14 16:30N 29°43' W 095°16'0 0.1
2017-Nov-14 13:41N 29°43' W 095°16'1 4.1
2017-Nov-14 13:29N 29°44' W 095°17'1 2.1
2017-Nov-14 13:00N 29°45' W 095°17'0 0.0
2017-Nov-14 12:30N 29°45' W 095°17'0 0.0
2017-Nov-14 12:00N 29°45' W 095°17'0 0.0
2017-Nov-14 11:30N 29°45' W 095°17'0 0.0
2017-Nov-14 11:00N 29°45' W 095°17'0 0.0
2017-Nov-14 10:30N 29°45' W 095°17'0 0.0
2017-Nov-14 10:00N 29°45' W 095°17'0 0.0
2017-Nov-14 09:30N 29°45' W 095°17'0 0.0
2017-Nov-14 09:00N 29°45' W 095°17'0 0.0
2017-Nov-14 08:30N 29°45' W 095°17'0 0.0
2017-Nov-14 08:00N 29°45' W 095°17'0 0.0
2017-Nov-14 07:30N 29°45' W 095°17'0 0.0
2017-Nov-14 07:00N 29°45' W 095°17'0 0.0
2017-Nov-14 06:30N 29°45' W 095°17'0 0.0
2017-Nov-14 06:00N 29°45' W 095°17'0 0.0
2017-Nov-14 05:24N 29°45' W 095°17'0 0.0
2017-Nov-14 05:00N 29°45' W 095°17'0 0.0
2017-Nov-14 04:30N 29°45' W 095°17'0 0.0
2017-Nov-14 04:00N 29°45' W 095°17'0 0.0
2017-Nov-14 03:30N 29°45' W 095°17'0 0.0
2017-Nov-14 03:00N 29°45' W 095°17'0 0.0
2017-Nov-14 02:30N 29°45' W 095°17'0 0.0
2017-Nov-14 02:00N 29°45' W 095°17'0 0.0
2017-Nov-14 01:30N 29°45' W 095°17'0 0.0
2017-Nov-14 01:00N 29°45' W 095°17'0 0.0
2017-Nov-14 00:30N 29°45' W 095°17'0 0.0
2017-Nov-14 00:00N 29°45' W 095°17'  

Dump ship's entire track history